Linn Grove, Iowa
Current Conditions -  °F | °C
As of 5:15 PM on Friday 19 Dec 2014 (Local Time) from KCKP Reporting Station
Overcast Overcast  
Wind Chill: 25°   Ceiling: 1400
Heat Index: 32°   Visibility: 7mi
Dew Point: 29°   Wind: 8mph
Humidity: 90%   Direction: 190°S
Pressure: 30.14"   Gusts: NA
Location:  42.89°N, 95.25°W
Report Text: KCKP 192315Z AUTO 19007KT 7SM OVC014 00/M01 A3014 RMK AO2 T00001015
Loading
Personal Weather Stations






























Interactive Weather Map New forecast layout! Learn more

10-Day Weather Forecast

Advertisements
Track Severe Weather on mobile